Time;durP1;ratioP1;P1;durP2;ratioP2;P2;SDS_P1;SDS_P2;PMS_P1;PMS_P2;Temp;Humidity;BMP_temperature;BMP_pressure;BME280_temperature;BME280_humidity;BME280_pressure;Samples;Min_cycle;Max_cycle;Signal;HPM_P1;HPM_P2
2023/01/03 00:04:43;;;;;;;1.65;1.23;;;;;;;9.62;86.81;101207.44;10338617;28;20145;-64
2023/01/03 00:09:50;;;;;;;2.05;1.10;;;;;;;9.62;86.50;101196.81;10344085;28;20041;-61
2023/01/03 00:14:51;;;;;;;0.90;0.65;;;;;;;9.45;86.88;101205.81;10346895;28;20124;-60
2023/01/03 00:19:53;;;;;;;0.90;0.70;;;;;;;9.45;86.80;101211.97;10326982;28;20132;-61
2023/01/03 00:24:54;;;;;;;2.25;0.93;;;;;;;9.48;86.25;101202.97;10333088;28;20739;-60
2023/01/03 00:29:55;;;;;;;1.08;0.82;;;;;;;9.49;85.42;101207.34;10327889;28;20698;-60
2023/01/03 00:34:57;;;;;;;0.95;0.60;;;;;;;9.48;85.78;101213.59;10340580;28;20062;-60
2023/01/03 00:40:05;;;;;;;1.92;0.90;;;;;;;9.47;85.05;101211.88;10320763;28;20095;-60
2023/01/03 00:45:07;;;;;;;0.60;0.47;;;;;;;9.45;84.01;101209.31;10328020;28;20865;-60
2023/01/03 00:50:11;;;;;;;0.90;0.67;;;;;;;9.26;84.59;101212.22;10331063;28;20554;-59
2023/01/03 00:55:12;;;;;;;1.75;0.50;;;;;;;9.14;84.70;101211.19;10343472;28;20762;-60
2023/01/03 01:00:14;;;;;;;2.22;0.60;;;;;;;9.14;84.75;101208.53;10337559;28;20616;-60
2023/01/03 01:05:15;;;;;;;1.80;0.70;;;;;;;9.19;84.64;101211.75;10346238;28;20053;-60
2023/01/03 01:10:18;;;;;;;1.60;0.70;;;;;;;9.16;84.42;101216.41;10321996;28;20053;-60
2023/01/03 01:15:19;;;;;;;1.50;1.02;;;;;;;9.24;84.64;101229.22;10318767;28;20045;-61
2023/01/03 01:20:21;;;;;;;2.10;0.77;;;;;;;9.23;84.67;101238.97;10324415;28;21419;-61
2023/01/03 01:25:22;;;;;;;1.25;0.98;;;;;;;9.21;85.08;101246.19;10343874;28;20409;-60
2023/01/03 01:30:24;;;;;;;1.05;0.68;;;;;;;9.30;84.86;101242.97;10336541;28;20708;-59
2023/01/03 01:35:25;;;;;;;1.88;0.90;;;;;;;9.31;84.74;101241.19;10326757;28;20050;-60
2023/01/03 01:40:26;;;;;;;1.55;0.90;;;;;;;9.28;84.90;101250.19;10328212;28;20060;-61
2023/01/03 01:45:28;;;;;;;1.67;0.88;;;;;;;9.22;85.05;101260.31;10347265;28;20136;-60
2023/01/03 01:50:38;;;;;;;1.45;1.35;;;;;;;9.27;84.87;101260.91;10336767;28;20049;-61
2023/01/03 01:55:50;;;;;;;2.15;1.48;;;;;;;9.28;84.98;101257.31;10341485;28;20057;-60
2023/01/03 02:00:51;;;;;;;2.40;1.83;;;;;;;9.27;85.22;101258.25;10349002;28;20196;-60
2023/01/03 02:05:59;;;;;;;1.90;1.30;;;;;;;9.28;85.04;101268.81;10334391;28;20061;-61
2023/01/03 02:11:25;;;;;;;2.25;1.50;;;;;;;9.37;84.68;101267.41;10317904;28;20041;-61
2023/01/03 02:17:00;;;;;;;2.13;1.65;;;;;;;9.51;84.58;101264.75;10347149;28;20053;-61
2023/01/03 02:22:19;;;;;;;1.70;1.30;;;;;;;9.54;83.95;101274.38;10345454;28;20059;-61
2023/01/03 02:27:49;;;;;;;1.73;1.45;;;;;;;9.47;83.99;101265.91;10346043;28;20571;-61
2023/01/03 02:32:53;;;;;;;2.25;1.83;;;;;;;9.45;84.26;101269.59;10353702;28;20107;-68
2023/01/03 02:38:07;;;;;;;1.40;1.30;;;;;;;9.33;85.09;101266.72;10350051;28;20053;-62
2023/01/03 02:43:26;;;;;;;1.48;1.33;;;;;;;9.32;85.22;101269.47;10340777;28;20791;-61
2023/01/03 02:48:31;;;;;;;1.30;1.20;;;;;;;9.30;84.63;101276.69;10339829;28;20034;-61
2023/01/03 02:53:46;;;;;;;1.83;1.40;;;;;;;9.26;85.38;101281.31;10343282;28;20056;-61
2023/01/03 02:58:55;;;;;;;1.60;1.50;;;;;;;9.31;85.47;101286.38;10342291;28;20057;-61
2023/01/03 03:03:58;;;;;;;2.30;1.70;;;;;;;9.28;85.29;101289.22;10340879;28;20068;-61
2023/01/03 03:09:00;;;;;;;2.00;1.65;;;;;;;9.35;85.45;101287.88;10343746;28;20049;-61
2023/01/03 03:14:07;;;;;;;2.25;1.83;;;;;;;9.37;85.25;101300.13;10341690;28;20076;-61
2023/01/03 03:24:51;;;;;;;3.22;2.00;;;;;;;9.32;84.53;101306.66;10349600;28;20058;-61
2023/01/03 03:29:55;;;;;;;2.20;2.00;;;;;;;9.24;85.12;101304.47;10330661;28;20775;-61
2023/01/03 03:35:02;;;;;;;2.30;2.10;;;;;;;9.22;85.36;101300.16;10342068;28;20133;-61
2023/01/03 03:46:05;;;;;;;2.63;2.13;;;;;;;9.15;85.56;101305.84;10343389;28;20049;-61
2023/01/03 03:51:13;;;;;;;2.33;2.13;;;;;;;9.13;85.24;101309.56;10250303;28;20118;-61
2023/01/03 03:56:20;;;;;;;2.40;2.00;;;;;;;9.09;85.65;101314.16;10344534;28;20056;-61
2023/01/03 04:01:24;;;;;;;2.63;2.42;;;;;;;9.07;85.53;101312.53;10341060;28;20175;-61
2023/01/03 04:06:33;;;;;;;2.60;2.40;;;;;;;9.03;85.40;101322.50;10341487;28;20049;-60
2023/01/03 04:11:34;;;;;;;2.83;2.63;;;;;;;9.02;85.68;101326.06;10330390;28;20053;-61
2023/01/03 04:16:36;;;;;;;3.67;2.65;;;;;;;8.98;86.24;101332.53;10346119;28;20053;-61
2023/01/03 04:21:38;;;;;;;3.15;2.67;;;;;;;8.92;86.10;101330.22;10341403;28;20053;-61
2023/01/03 04:26:40;;;;;;;5.03;2.97;;;;;;;8.80;86.36;101321.16;10307849;28;20054;-61
2023/01/03 04:31:41;;;;;;;4.90;2.95;;;;;;;8.70;86.82;101331.41;10349221;28;20187;-62
2023/01/03 04:36:43;;;;;;;4.05;3.40;;;;;;;8.61;87.53;101326.63;10300714;28;21332;-64
2023/01/03 04:41:44;;;;;;;4.72;3.75;;;;;;;8.44;88.31;101331.03;10346370;28;20709;-61
2023/01/03 04:46:46;;;;;;;5.57;3.55;;;;;;;8.36;88.57;101327.94;10336317;28;20052;-61
2023/01/03 04:51:53;;;;;;;4.03;3.70;;;;;;;8.41;88.62;101336.50;10322348;28;20103;-61
2023/01/03 04:56:54;;;;;;;4.63;4.22;;;;;;;8.35;88.91;101341.25;10349184;28;20100;-60
2023/01/03 05:01:56;;;;;;;4.95;4.20;;;;;;;8.41;88.79;101340.94;10344447;28;20140;-60
2023/01/03 05:06:57;;;;;;;4.57;4.13;;;;;;;8.33;88.71;101351.94;10347310;28;20061;-60
2023/01/03 05:11:59;;;;;;;5.10;4.20;;;;;;;8.30;88.70;101349.47;10334895;28;20065;-60
2023/01/03 05:17:00;;;;;;;4.10;3.80;;;;;;;8.29;89.01;101347.78;10347182;28;20842;-60
2023/01/03 05:27:22;;;;;;;7.13;4.13;;;;;;;8.18;89.17;101345.69;10350518;28;20046;-60
2023/01/03 05:32:24;;;;;;;4.78;4.30;;;;;;;8.20;88.90;101350.91;10352721;28;20049;-61
2023/01/03 05:37:25;;;;;;;6.20;5.63;;;;;;;8.01;89.68;101349.22;10341530;28;20492;-61
2023/01/03 05:42:27;;;;;;;5.38;4.90;;;;;;;7.94;90.29;101351.34;10350588;28;20784;-61
2023/01/03 05:47:29;;;;;;;6.22;5.07;;;;;;;7.87;90.58;101343.78;10335378;28;20140;-60
2023/01/03 05:52:31;;;;;;;7.20;6.28;;;;;;;7.77;90.88;101356.63;10340406;28;20058;-60
2023/01/03 05:57:32;;;;;;;6.50;5.90;;;;;;;7.75;90.92;101353.22;10333281;28;20057;-60
2023/01/03 06:02:36;;;;;;;7.05;6.28;;;;;;;7.79;90.54;101370.66;10347103;28;20054;-60
2023/01/03 06:07:38;;;;;;;6.68;6.05;;;;;;;7.69;90.83;101375.59;10329274;28;20052;-60
2023/01/03 06:12:39;;;;;;;6.40;5.85;;;;;;;7.82;90.47;101369.66;10318129;28;20049;-60
2023/01/03 06:17:53;;;;;;;6.72;5.97;;;;;;;7.65;90.34;101367.88;10334812;28;20056;-62
2023/01/03 06:22:55;;;;;;;6.38;5.72;;;;;;;7.64;90.15;101374.97;10339928;28;20163;-60
2023/01/03 06:27:57;;;;;;;7.43;6.38;;;;;;;7.56;91.04;101377.13;10344497;28;20052;-59
2023/01/03 06:32:58;;;;;;;7.95;6.80;;;;;;;7.60;91.12;101381.34;10340475;28;20076;-60
2023/01/03 06:38:00;;;;;;;7.60;6.68;;;;;;;7.58;90.86;101376.13;10325420;28;20092;-60
2023/01/03 06:43:01;;;;;;;6.75;6.13;;;;;;;7.60;90.57;101376.91;10335629;28;20053;-61
2023/01/03 06:53:28;;;;;;;8.05;7.28;;;;;;;7.27;92.48;101384.72;10341556;28;20048;-60
2023/01/03 06:58:30;;;;;;;7.15;6.55;;;;;;;7.39;91.75;101392.06;10345511;28;20877;-62
2023/01/03 07:03:33;;;;;;;8.02;7.15;;;;;;;7.40;91.49;101392.91;10342443;28;20064;-63
2023/01/03 07:08:35;;;;;;;7.25;6.55;;;;;;;7.42;91.08;101397.22;10331105;28;20158;-61
2023/01/03 07:18:59;;;;;;;8.13;7.35;;;;;;;7.22;92.23;101407.91;10348816;28;20041;-60
2023/01/03 07:24:02;;;;;;;9.98;8.05;;;;;;;7.22;91.96;101413.22;10351167;28;20706;-61
2023/01/03 07:29:07;;;;;;;8.23;7.45;;;;;;;7.13;92.78;101414.53;10337512;28;20092;-61
2023/01/03 07:34:08;;;;;;;;;;;;;;;7.21;92.30;101411.53;10330767;28;20272;-61
2023/01/03 07:39:10;;;;;;;9.15;7.88;;;;;;;7.30;92.01;101429.63;10357937;28;20002;-61
2023/01/03 07:44:12;;;;;;;9.85;7.90;;;;;;;7.31;91.20;101430.47;10339086;28;20136;-59
2023/01/03 07:49:14;;;;;;;8.77;7.80;;;;;;;7.21;91.74;101435.34;10324524;28;20148;-62
2023/01/03 07:54:15;;;;;;;8.55;7.85;;;;;;;7.18;92.49;101440.78;10344311;28;20083;-62
2023/01/03 07:59:17;;;;;;;8.82;7.93;;;;;;;7.25;92.14;101455.44;10328172;28;20056;-61
2023/01/03 08:04:18;;;;;;;9.02;8.23;;;;;;;7.37;91.51;101465.47;10334372;28;20117;-61
2023/01/03 08:14:40;;;;;;;9.13;8.32;;;;;;;7.59;89.77;101464.44;10359867;28;20792;-61
2023/01/03 08:19:42;;;;;;;8.25;7.18;;;;;;;7.61;89.83;101473.16;10332395;28;20140;-60
2023/01/03 08:24:46;;;;;;;9.40;6.97;;;;;;;7.69;88.67;101478.94;10361350;28;20079;-61
2023/01/03 08:29:49;;;;;;;8.82;7.85;;;;;;;7.79;88.01;101482.88;10340821;28;20093;-61
2023/01/03 08:34:53;;;;;;;8.25;7.43;;;;;;;7.76;87.98;101490.97;10349991;28;20054;-61
2023/01/03 08:40:00;;;;;;;9.27;7.75;;;;;;;7.96;87.15;101499.75;10344372;28;20053;-63
2023/01/03 08:45:05;;;;;;;9.68;8.52;;;;;;;7.87;86.55;101495.75;10348318;28;20053;-60
2023/01/03 08:50:08;;;;;;;9.68;8.73;;;;;;;7.91;86.72;101501.75;10325750;28;20070;-60
2023/01/03 08:55:10;;;;;;;9.98;9.00;;;;;;;7.97;86.78;101506.75;10347601;28;20056;-60
2023/01/03 09:00:12;;;;;;;9.65;8.57;;;;;;;7.97;87.10;101504.09;10350730;28;20144;-60
2023/01/03 09:05:14;;;;;;;9.40;8.38;;;;;;;8.00;87.02;101508.38;10340178;28;20057;-60
2023/01/03 09:10:16;;;;;;;9.65;8.65;;;;;;;8.05;86.23;101512.53;10349746;28;20084;-60
2023/01/03 09:15:17;;;;;;;10.38;9.15;;;;;;;8.08;86.48;101504.44;10334549;28;20050;-62
2023/01/03 09:20:19;;;;;;;11.02;10.02;;;;;;;8.05;86.34;101509.88;10353923;28;20045;-62
2023/01/03 09:25:20;;;;;;;9.40;8.50;;;;;;;8.06;86.69;101513.38;10347087;28;20143;-59
2023/01/03 09:30:22;;;;;;;10.27;9.27;;;;;;;8.10;86.34;101523.75;10358719;28;20384;-60
2023/01/03 09:35:23;;;;;;;9.65;8.80;;;;;;;8.25;86.20;101515.97;10351835;28;20049;-61
2023/01/03 09:40:25;;;;;;;9.50;8.60;;;;;;;8.34;86.04;101512.84;10350723;28;20246;-59
2023/01/03 09:45:31;;;;;;;9.10;8.18;;;;;;;8.44;85.22;101516.78;10353139;28;20049;-60
2023/01/03 09:50:35;;;;;;;10.60;9.60;;;;;;;8.52;85.59;101510.22;10337130;28;20619;-59
2023/01/03 10:07:32;;;;;;;11.70;8.73;;;;;;;8.97;82.31;101516.72;10354171;28;20062;-61
2023/01/03 10:12:37;;;;;;;8.40;7.57;;;;;;;9.14;81.00;101516.66;10351309;28;20119;-65
2023/01/03 10:17:44;;;;;;;8.23;7.43;;;;;;;9.36;80.80;101504.84;10343826;28;20068;-65
2023/01/03 10:22:47;;;;;;;9.82;7.47;;;;;;;9.54;79.03;101500.31;10355672;28;20115;-60
2023/01/03 10:27:55;;;;;;;7.68;6.93;;;;;;;9.73;78.05;101498.31;10351509;28;20072;-60
2023/01/03 10:33:18;;;;;;;7.55;6.72;;;;;;;9.90;76.62;101494.69;10338565;28;20061;-60
2023/01/03 10:38:21;;;;;;;8.38;7.35;;;;;;;10.04;76.21;101493.91;10334106;28;20458;-59
2023/01/03 10:43:43;;;;;;;7.60;6.80;;;;;;;10.65;74.72;101485.03;10349387;28;20064;-60
2023/01/03 10:48:47;;;;;;;8.80;8.00;;;;;;;11.10;72.30;101493.78;10347413;28;20053;-60
2023/01/03 10:54:16;;;;;;;8.40;7.60;;;;;;;12.18;68.43;101492.97;10345564;28;20053;-60
2023/01/03 10:59:30;;;;;;;7.25;6.55;;;;;;;14.35;60.60;101486.34;10350389;28;20059;-60
2023/01/03 11:04:31;;;;;;;6.97;6.18;;;;;;;15.62;54.81;101479.06;10308561;28;20046;-60
2023/01/03 11:09:49;;;;;;;7.00;6.30;;;;;;;13.92;59.31;101489.66;10330196;28;20049;-60
2023/01/03 11:14:56;;;;;;;7.35;6.20;;;;;;;12.71;63.05;101487.56;10329733;28;20638;-60
2023/01/03 11:19:57;;;;;;;6.93;5.88;;;;;;;12.05;64.55;101484.06;10345262;28;20762;-60
2023/01/03 11:25:02;;;;;;;6.13;5.18;;;;;;;11.21;67.90;101475.28;10348795;28;20136;-60
2023/01/03 11:30:36;;;;;;;4.78;4.38;;;;;;;10.98;69.27;101478.56;10343653;28;21762;-60
2023/01/03 11:35:52;;;;;;;5.13;4.63;;;;;;;10.65;71.03;101474.38;10295472;28;20060;-60
2023/01/03 11:41:01;;;;;;;4.93;4.47;;;;;;;10.53;71.13;101483.97;10346628;28;20049;-59
2023/01/03 11:46:14;;;;;;;7.45;5.72;;;;;;;10.52;72.57;101480.41;10344942;28;20045;-62
2023/01/03 11:51:19;;;;;;;6.05;4.35;;;;;;;10.53;72.56;101482.16;10347783;28;20598;-60
2023/01/03 11:56:42;;;;;;;4.60;4.15;;;;;;;10.49;72.45;101469.13;10334419;28;20063;-60
2023/01/03 12:01:45;;;;;;;5.43;4.57;;;;;;;10.46;71.72;101462.16;10332997;28;20238;-60
2023/01/03 12:07:06;;;;;;;7.60;4.43;;;;;;;10.72;70.39;101460.59;10343866;28;20526;-60
2023/01/03 12:12:46;;;;;;;6.57;5.57;;;;;;;10.73;69.99;101456.09;10319346;28;20053;-60
2023/01/03 12:17:58;;;;;;;8.40;4.85;;;;;;;10.45;70.38;101452.50;10340498;28;20065;-60
2023/01/03 12:23:05;;;;;;;5.10;4.20;;;;;;;10.27;71.28;101443.78;10342524;28;20775;-60
2023/01/03 12:28:10;;;;;;;5.18;4.60;;;;;;;10.47;71.66;101439.94;10327651;28;20153;-60
2023/01/03 12:33:59;;;;;;;4.97;4.00;;;;;;;10.21;73.00;101446.81;10347301;28;20152;-66
2023/01/03 12:39:29;;;;;;;4.53;4.13;;;;;;;9.97;73.70;101446.44;10291763;28;20049;-59
2023/01/03 12:44:40;;;;;;;4.85;4.10;;;;;;;10.12;73.63;101439.34;10348257;28;20041;-60
2023/01/03 12:49:50;;;;;;;4.55;3.88;;;;;;;10.04;73.79;101430.06;10344990;28;20047;-59
2023/01/03 12:55:18;;;;;;;6.97;4.13;;;;;;;10.14;74.63;101427.69;10354856;28;20568;-59
2023/01/03 13:00:52;;;;;;;5.65;3.60;;;;;;;10.02;73.85;101431.06;10341727;28;20685;-59
2023/01/03 13:06:04;;;;;;;5.90;3.65;;;;;;;9.89;74.33;101431.81;10346447;28;20045;-60
2023/01/03 13:11:28;;;;;;;5.32;2.95;;;;;;;9.90;74.14;101424.69;10352245;28;20088;-60
2023/01/03 13:16:39;;;;;;;3.13;2.53;;;;;;;9.98;75.55;101417.09;10353858;28;20045;-57
2023/01/03 13:22:02;;;;;;;4.50;3.00;;;;;;;10.00;73.88;101414.38;10352909;28;20147;-56
2023/01/03 13:27:15;;;;;;;4.30;2.90;;;;;;;10.07;73.44;101405.91;10332945;28;20100;-56
2023/01/03 13:32:19;;;;;;;3.50;2.13;;;;;;;10.32;72.78;101403.56;10345880;28;20053;-60
2023/01/03 13:37:43;;;;;;;5.97;2.20;;;;;;;10.11;72.54;101406.59;10347683;28;20055;-63
2023/01/03 13:42:45;;;;;;;2.85;1.83;;;;;;;9.90;72.88;101409.56;10353813;28;20128;-59
2023/01/03 13:47:49;;;;;;;4.45;2.30;;;;;;;10.04;73.46;101405.22;10338903;28;20056;-59
2023/01/03 13:52:56;;;;;;;2.93;1.97;;;;;;;10.00;73.27;101403.72;10348117;28;20190;-58
2023/01/03 13:57:58;;;;;;;3.15;2.03;;;;;;;9.97;73.29;101410.06;10327976;28;20065;-59
2023/01/03 14:03:20;;;;;;;4.55;1.90;;;;;;;9.99;73.96;101399.34;10329464;28;20712;-59
2023/01/03 14:08:37;;;;;;;2.63;1.75;;;;;;;9.90;73.83;101400.75;10345193;28;20059;-60
2023/01/03 14:13:48;;;;;;;5.32;2.15;;;;;;;9.85;73.78;101398.34;10337712;28;20053;-61
2023/01/03 14:19:05;;;;;;;3.72;2.10;;;;;;;9.88;74.12;101397.34;10318996;28;20455;-60
2023/01/03 14:24:15;;;;;;;2.88;2.28;;;;;;;9.79;73.67;101396.06;10343563;28;20084;-60
2023/01/03 14:29:25;;;;;;;4.38;2.45;;;;;;;9.87;73.36;101404.44;10350748;28;20073;-63
2023/01/03 14:34:31;;;;;;;4.30;2.63;;;;;;;9.88;73.39;101406.16;10339872;28;20067;-60
2023/01/03 14:39:33;;;;;;;3.65;2.25;;;;;;;10.00;73.59;101404.56;10347850;28;20049;-60
2023/01/03 14:44:34;;;;;;;4.28;2.90;;;;;;;9.92;72.63;101401.50;10345112;28;20048;-60
2023/01/03 14:49:40;;;;;;;3.25;2.38;;;;;;;9.99;73.19;101404.66;10327230;28;20766;-64
2023/01/03 14:54:48;;;;;;;3.03;2.22;;;;;;;10.08;72.83;101406.78;10324437;28;20052;-60
2023/01/03 14:59:51;;;;;;;2.88;2.33;;;;;;;10.02;71.90;101399.16;10332503;28;20184;-60
2023/01/03 15:04:57;;;;;;;3.47;2.70;;;;;;;10.05;72.40;101404.28;10342512;28;20049;-61
2023/01/03 15:10:16;;;;;;;5.45;2.53;;;;;;;10.06;72.23;101406.88;10344085;28;20515;-60
2023/01/03 15:15:27;;;;;;;4.72;2.97;;;;;;;10.05;72.12;101409.63;10337816;28;20542;-67
2023/01/03 15:20:37;;;;;;;4.93;2.53;;;;;;;10.13;72.21;101419.78;10339897;28;20041;-60
2023/01/03 15:25:40;;;;;;;5.95;2.65;;;;;;;10.08;71.96;101428.06;10340580;28;20049;-60
2023/01/03 15:30:47;;;;;;;3.27;2.83;;;;;;;10.09;72.42;101430.63;10345015;28;20092;-59
2023/01/03 15:35:52;;;;;;;5.35;2.35;;;;;;;10.09;72.21;101435.09;10345135;28;20480;-60
2023/01/03 15:40:54;;;;;;;2.90;2.60;;;;;;;10.01;72.46;101437.34;10331638;28;20104;-60
2023/01/03 15:46:10;;;;;;;5.13;2.80;;;;;;;9.97;72.21;101435.78;10339186;28;20478;-62
2023/01/03 15:51:11;;;;;;;4.30;2.70;;;;;;;9.83;72.61;101445.47;10328583;28;20045;-59
2023/01/03 15:56:16;;;;;;;4.85;3.40;;;;;;;9.90;73.23;101444.13;10328517;28;20049;-61
2023/01/03 16:01:21;;;;;;;4.13;2.42;;;;;;;9.88;73.56;101438.06;10346124;28;20045;-65
2023/01/03 16:06:23;;;;;;;2.85;2.30;;;;;;;9.79;74.22;101443.06;10328523;28;20069;-61
2023/01/03 16:11:25;;;;;;;3.40;2.20;;;;;;;9.81;74.43;101447.34;10339398;28;20562;-60
2023/01/03 16:16:38;;;;;;;3.30;2.80;;;;;;;9.78;74.96;101447.53;10345476;28;20056;-59
2023/01/03 16:21:40;;;;;;;3.65;2.88;;;;;;;9.76;75.22;101433.47;10347487;28;20073;-60
2023/01/03 16:27:11;;;;;;;3.47;2.83;;;;;;;9.66;76.07;101432.28;10348771;28;20058;-58
2023/01/03 16:32:21;;;;;;;4.80;3.05;;;;;;;9.49;76.60;101436.78;10333095;28;20048;-58
2023/01/03 16:37:23;;;;;;;6.65;3.55;;;;;;;9.44;77.15;101441.47;10347226;28;20052;-59
2023/01/03 16:42:27;;;;;;;4.57;3.70;;;;;;;9.34;77.62;101433.19;10348616;28;20107;-60
2023/01/03 16:47:32;;;;;;;4.63;3.80;;;;;;;9.25;78.22;101441.69;10335302;28;20042;-59
2023/01/03 16:52:35;;;;;;;;;;;;;;;9.28;78.29;101436.19;10347303;28;20131;-61
2023/01/03 16:57:36;;;;;;;4.78;3.15;;;;;;;9.36;78.00;101447.22;10351758;28;19921;-59
2023/01/03 17:02:38;;;;;;;4.15;3.67;;;;;;;9.49;77.14;101451.88;10335992;28;20053;-59
2023/01/03 17:07:43;;;;;;;5.75;4.22;;;;;;;9.41;77.03;101444.31;10322652;28;20521;-59
2023/01/03 17:12:44;;;;;;;;;;;;;;;9.45;77.50;101434.38;10348685;28;20783;-59
2023/01/03 17:17:46;;;;;;;4.88;3.42;;;;;;;9.47;76.65;101441.34;10348016;28;20502;-59
2023/01/03 17:22:54;;;;;;;6.35;4.20;;;;;;;9.48;76.63;101442.19;10344655;28;20115;-59
2023/01/03 17:27:58;;;;;;;6.32;4.25;;;;;;;9.42;76.41;101448.69;10344319;28;20401;-59
2023/01/03 17:33:00;;;;;;;6.03;4.43;;;;;;;9.44;76.20;101440.63;10333257;28;20424;-60
2023/01/03 17:38:02;;;;;;;6.15;4.57;;;;;;;9.38;75.93;101441.81;10357189;28;20714;-59
2023/01/03 17:43:24;;;;;;;5.10;4.50;;;;;;;9.26;76.46;101450.50;10326892;28;20053;-59
2023/01/03 17:53:48;;;;;;;7.07;4.70;;;;;;;9.09;76.99;101446.97;10340891;28;20846;-59
2023/01/03 17:58:51;;;;;;;6.60;4.72;;;;;;;9.06;77.58;101447.16;10328130;28;20049;-61
2023/01/03 18:03:56;;;;;;;5.80;4.97;;;;;;;9.01;77.50;101439.44;10322327;28;20175;-61
2023/01/03 18:09:02;;;;;;;6.32;4.75;;;;;;;8.92;77.62;101447.06;10344612;28;20141;-62
2023/01/03 18:14:04;;;;;;;7.82;5.20;;;;;;;8.91;77.79;101455.97;10329952;28;20136;-60
2023/01/03 18:19:05;;;;;;;8.02;5.63;;;;;;;8.76;77.70;101455.84;10331260;28;20053;-60
2023/01/03 18:24:28;;;;;;;7.75;5.90;;;;;;;8.63;78.31;101452.13;10340853;28;20695;-60
2023/01/03 18:29:29;;;;;;;6.22;5.57;;;;;;;8.59;78.67;101466.53;10351435;28;20717;-64
2023/01/03 18:34:31;;;;;;;5.97;4.65;;;;;;;8.41;79.59;101450.59;10324019;28;20505;-59
2023/01/03 18:39:33;;;;;;;9.48;5.78;;;;;;;8.49;79.46;101455.50;10346955;28;20132;-59
2023/01/03 18:44:34;;;;;;;9.18;6.00;;;;;;;8.40;79.54;101454.16;10335621;28;20049;-60
2023/01/03 18:49:36;;;;;;;11.05;6.85;;;;;;;8.44;79.93;101458.41;10351236;28;20615;-60
2023/01/03 18:54:37;;;;;;;9.93;6.70;;;;;;;8.28;80.81;101476.03;10338585;28;20141;-60
2023/01/03 18:59:39;;;;;;;6.43;5.68;;;;;;;8.25;81.19;101468.22;10338243;28;20049;-62
2023/01/03 19:04:41;;;;;;;9.05;6.70;;;;;;;8.19;81.81;101472.03;10323261;28;20050;-59
2023/01/03 19:09:52;;;;;;;7.90;5.85;;;;;;;8.18;82.07;101474.78;10312440;28;20049;-60
2023/01/03 19:14:54;;;;;;;6.82;5.75;;;;;;;8.08;82.59;101472.59;10342739;28;20053;-60
2023/01/03 19:19:55;;;;;;;8.55;6.70;;;;;;;8.07;83.02;101462.91;10343724;28;20135;-60
2023/01/03 19:25:03;;;;;;;8.65;7.35;;;;;;;8.03;83.10;101458.72;10347695;28;20061;-59
2023/01/03 19:30:13;;;;;;;10.07;6.72;;;;;;;8.09;82.77;101466.38;10344760;28;20482;-59
2023/01/03 19:35:15;;;;;;;8.00;7.00;;;;;;;8.03;82.71;101453.44;10318209;28;20041;-59
2023/01/03 19:40:23;;;;;;;7.70;6.72;;;;;;;7.99;83.07;101446.56;10332594;28;20130;-60
2023/01/03 19:45:28;;;;;;;6.97;5.70;;;;;;;8.09;81.98;101449.59;10337749;28;20135;-61
2023/01/03 19:50:33;;;;;;;9.40;6.50;;;;;;;8.12;81.02;101452.94;10337499;28;20833;-60
2023/01/03 19:55:39;;;;;;;7.75;5.28;;;;;;;8.00;80.84;101442.97;10334607;28;20152;-61
2023/01/03 20:00:41;;;;;;;7.70;5.70;;;;;;;8.03;80.69;101432.22;10341320;28;20118;-60
2023/01/03 20:05:42;;;;;;;7.45;6.13;;;;;;;8.04;80.15;101427.75;10343698;28;20053;-60
2023/01/03 20:10:44;;;;;;;5.88;5.13;;;;;;;8.04;80.05;101428.59;10334575;28;20079;-59
2023/01/03 20:15:48;;;;;;;6.30;5.18;;;;;;;8.13;79.87;101422.81;10345009;28;20072;-61
2023/01/03 20:20:50;;;;;;;7.55;5.10;;;;;;;8.10;79.01;101422.13;10315623;28;20054;-60
2023/01/03 20:25:51;;;;;;;5.57;4.15;;;;;;;8.13;78.91;101406.91;10331229;28;20763;-60
2023/01/03 20:30:58;;;;;;;6.00;4.82;;;;;;;8.12;78.81;101405.22;10321842;28;20463;-60
2023/01/03 20:36:06;;;;;;;6.72;4.82;;;;;;;8.07;78.71;101406.38;10328600;28;20058;-60
2023/01/03 20:41:34;;;;;;;8.27;4.95;;;;;;;8.01;78.91;101402.25;10348788;28;21328;-61
2023/01/03 20:46:37;;;;;;;5.97;5.07;;;;;;;8.05;78.76;101401.16;10344019;28;20050;-60
2023/01/03 20:51:39;;;;;;;7.20;5.28;;;;;;;7.93;79.57;101401.78;10336054;28;20115;-60
2023/01/03 20:56:41;;;;;;;7.32;5.93;;;;;;;7.88;79.46;101396.72;10333898;28;20389;-60
2023/01/03 21:01:44;;;;;;;6.63;5.43;;;;;;;7.84;79.99;101392.50;10334567;28;20717;-60
2023/01/03 21:06:47;;;;;;;8.32;5.43;;;;;;;7.84;79.47;101384.56;10348857;28;20495;-63
2023/01/03 21:11:49;;;;;;;6.18;4.60;;;;;;;7.70;79.66;101369.38;10324912;28;20060;-60
2023/01/03 21:16:50;;;;;;;6.22;5.30;;;;;;;7.77;79.64;101367.25;10321734;28;20132;-62
2023/01/03 21:21:54;;;;;;;6.40;5.03;;;;;;;7.76;79.33;101371.69;10340517;28;20065;-60
2023/01/03 21:26:55;;;;;;;6.65;4.70;;;;;;;7.79;78.85;101376.84;10344602;28;20050;-60
2023/01/03 21:31:58;;;;;;;6.78;4.80;;;;;;;7.83;78.89;101392.59;10356243;28;20071;-60
2023/01/03 21:36:59;;;;;;;8.15;5.63;;;;;;;7.81;78.60;101383.84;10328461;28;20061;-60
2023/01/03 21:47:23;;;;;;;5.55;4.82;;;;;;;7.84;78.75;101378.41;10348249;28;20228;-65
2023/01/03 21:52:25;;;;;;;5.53;4.28;;;;;;;7.81;78.98;101373.22;10331906;28;20317;-61
2023/01/03 21:57:26;;;;;;;4.93;4.40;;;;;;;7.82;78.52;101369.66;10324802;28;20415;-62
2023/01/03 22:07:48;;;;;;;6.20;4.50;;;;;;;7.78;78.22;101337.16;10344409;28;20042;-62
2023/01/03 22:12:59;;;;;;;6.10;4.25;;;;;;;7.70;78.64;101334.91;10346439;28;20145;-67
2023/01/03 22:18:01;;;;;;;6.40;3.83;;;;;;;7.71;78.13;101338.41;10346828;28;21332;-61
2023/01/03 22:23:03;;;;;;;5.68;3.75;;;;;;;7.61;78.65;101344.19;10335552;28;20120;-61
2023/01/03 22:28:08;;;;;;;6.07;4.05;;;;;;;7.64;79.17;101335.22;10336607;28;20052;-61
2023/01/03 22:33:11;;;;;;;9.52;5.18;;;;;;;7.65;79.03;101336.91;10307480;28;20738;-63
2023/01/03 22:38:12;;;;;;;8.27;4.72;;;;;;;7.48;79.42;101340.44;10344210;28;20129;-64
2023/01/03 22:43:15;;;;;;;6.45;4.35;;;;;;;7.37;79.63;101338.31;10325995;28;20050;-61
2023/01/03 22:48:17;;;;;;;7.80;4.57;;;;;;;7.21;80.24;101330.28;10332850;28;20045;-62
2023/01/03 22:53:19;;;;;;;6.15;4.55;;;;;;;7.15;80.54;101335.03;10346436;28;20050;-62
2023/01/03 22:58:20;;;;;;;6.78;3.88;;;;;;;7.03;81.49;101337.31;10326674;28;20045;-61
2023/01/03 23:03:30;;;;;;;6.07;4.43;;;;;;;7.04;81.26;101339.03;10328774;28;20058;-63
2023/01/03 23:08:33;;;;;;;6.50;4.88;;;;;;;7.05;81.40;101343.38;10316960;28;20046;-62
2023/01/03 23:13:35;;;;;;;7.18;4.47;;;;;;;7.06;81.87;101323.94;10318804;28;20107;-59
2023/01/03 23:18:36;;;;;;;9.63;5.72;;;;;;;6.97;82.22;101329.69;10334054;28;20132;-58
2023/01/03 23:23:38;;;;;;;7.65;5.43;;;;;;;6.77;83.17;101309.47;10313731;28;20104;-59
2023/01/03 23:28:39;;;;;;;8.32;5.45;;;;;;;6.71;83.99;101307.97;10316151;28;20408;-59
2023/01/03 23:33:41;;;;;;;8.05;5.13;;;;;;;6.70;84.24;101300.94;10340433;28;20049;-60
2023/01/03 23:38:42;;;;;;;7.63;5.43;;;;;;;6.72;84.30;101292.94;10339674;28;20053;-59
2023/01/03 23:43:44;;;;;;;7.30;4.65;;;;;;;6.71;84.50;101296.50;10330010;28;20404;-60
2023/01/03 23:48:46;;;;;;;8.73;5.72;;;;;;;6.64;84.81;101297.75;10347499;28;20076;-58
2023/01/03 23:53:48;;;;;;;9.10;5.30;;;;;;;6.71;84.75;101297.38;10312825;28;20072;-60
2023/01/03 23:58:51;;;;;;;8.30;5.22;;;;;;;6.70;84.41;101295.66;10331592;28;20120;-59
